sensor_id;sensor_type;location;lat;lon;timestamp;pressure;altitude;pressure_sealevel;temperature;humidity
44934;BME280;30667;43.614;1.442;2023-02-19T00:01:10;101212.13;;;9.47;100.00
44934;BME280;30667;43.614;1.442;2023-02-19T00:03:37;101204.25;;;9.45;100.00
44934;BME280;30667;43.614;1.442;2023-02-19T00:06:04;101202.84;;;9.42;100.00
44934;BME280;30667;43.614;1.442;2023-02-19T00:08:34;101209.81;;;9.38;100.00
44934;BME280;30667;43.614;1.442;2023-02-19T00:11:01;101205.94;;;9.34;100.00
44934;BME280;30667;43.614;1.442;2023-02-19T00:13:27;101209.69;;;9.33;100.00
44934;BME280;30667;43.614;1.442;2023-02-19T00:15:53;101212.38;;;9.33;100.00
44934;BME280;30667;43.614;1.442;2023-02-19T00:18:18;101210.78;;;9.32;100.00
44934;BME280;30667;43.614;1.442;2023-02-19T00:20:44;101208.53;;;9.29;100.00
44934;BME280;30667;43.614;1.442;2023-02-19T00:23:09;101209.13;;;9.31;100.00
44934;BME280;30667;43.614;1.442;2023-02-19T00:25:37;101204.66;;;9.25;100.00
44934;BME280;30667;43.614;1.442;2023-02-19T00:28:03;101214.56;;;9.19;100.00
44934;BME280;30667;43.614;1.442;2023-02-19T00:30:28;101213.50;;;9.20;100.00
44934;BME280;30667;43.614;1.442;2023-02-19T00:32:54;101206.34;;;9.14;100.00
44934;BME280;30667;43.614;1.442;2023-02-19T00:35:20;101203.06;;;9.12;100.00
44934;BME280;30667;43.614;1.442;2023-02-19T00:37:45;101200.50;;;9.05;100.00
44934;BME280;30667;43.614;1.442;2023-02-19T00:40:10;101206.00;;;9.11;100.00
44934;BME280;30667;43.614;1.442;2023-02-19T00:42:36;101202.50;;;9.10;100.00
44934;BME280;30667;43.614;1.442;2023-02-19T00:45:01;101198.38;;;9.07;100.00
44934;BME280;30667;43.614;1.442;2023-02-19T00:47:27;101192.16;;;9.07;100.00
44934;BME280;30667;43.614;1.442;2023-02-19T00:49:52;101195.00;;;9.00;100.00
44934;BME280;30667;43.614;1.442;2023-02-19T00:52:18;101200.63;;;8.99;100.00
44934;BME280;30667;43.614;1.442;2023-02-19T00:54:43;101193.94;;;9.01;100.00
44934;BME280;30667;43.614;1.442;2023-02-19T00:57:08;101190.06;;;8.97;100.00
44934;BME280;30667;43.614;1.442;2023-02-19T00:59:34;101190.91;;;8.86;100.00
44934;BME280;30667;43.614;1.442;2023-02-19T01:02:01;101189.28;;;8.85;100.00
44934;BME280;30667;43.614;1.442;2023-02-19T01:04:26;101186.56;;;8.85;100.00
44934;BME280;30667;43.614;1.442;2023-02-19T01:06:52;101193.38;;;8.87;100.00
44934;BME280;30667;43.614;1.442;2023-02-19T01:09:18;101190.44;;;8.77;100.00
44934;BME280;30667;43.614;1.442;2023-02-19T01:11:43;101192.69;;;8.80;100.00
44934;BME280;30667;43.614;1.442;2023-02-19T01:14:09;101185.75;;;8.72;100.00
44934;BME280;30667;43.614;1.442;2023-02-19T01:16:34;101189.28;;;8.73;100.00
44934;BME280;30667;43.614;1.442;2023-02-19T01:19:00;101191.75;;;8.75;100.00
44934;BME280;30667;43.614;1.442;2023-02-19T01:21:27;101187.75;;;8.77;100.00
44934;BME280;30667;43.614;1.442;2023-02-19T01:23:53;101198.53;;;8.77;100.00
44934;BME280;30667;43.614;1.442;2023-02-19T01:26:22;101202.91;;;8.66;100.00
44934;BME280;30667;43.614;1.442;2023-02-19T01:28:48;101201.59;;;8.69;100.00
44934;BME280;30667;43.614;1.442;2023-02-19T01:31:19;101192.59;;;8.63;100.00
44934;BME280;30667;43.614;1.442;2023-02-19T01:33:46;101198.81;;;8.64;100.00
44934;BME280;30667;43.614;1.442;2023-02-19T01:36:11;101198.00;;;8.63;100.00
44934;BME280;30667;43.614;1.442;2023-02-19T01:38:37;101196.56;;;8.61;100.00
44934;BME280;30667;43.614;1.442;2023-02-19T01:41:05;101198.00;;;8.63;100.00
44934;BME280;30667;43.614;1.442;2023-02-19T01:43:32;101195.28;;;8.63;100.00
44934;BME280;30667;43.614;1.442;2023-02-19T01:45:57;101188.47;;;8.61;100.00
44934;BME280;30667;43.614;1.442;2023-02-19T01:48:31;101190.84;;;8.57;100.00
44934;BME280;30667;43.614;1.442;2023-02-19T01:51:09;101194.56;;;8.56;100.00
44934;BME280;30667;43.614;1.442;2023-02-19T01:53:40;101195.03;;;8.53;100.00
44934;BME280;30667;43.614;1.442;2023-02-19T01:56:08;101188.50;;;8.49;100.00
44934;BME280;30667;43.614;1.442;2023-02-19T01:58:35;101196.59;;;8.49;100.00
44934;BME280;30667;43.614;1.442;2023-02-19T02:01:05;101196.59;;;8.49;100.00
44934;BME280;30667;43.614;1.442;2023-02-19T02:03:32;101191.91;;;8.44;100.00
44934;BME280;30667;43.614;1.442;2023-02-19T02:08:33;101193.59;;;8.39;100.00
44934;BME280;30667;43.614;1.442;2023-02-19T02:11:18;101197.84;;;8.34;100.00
44934;BME280;30667;43.614;1.442;2023-02-19T02:13:44;101200.78;;;8.33;100.00
44934;BME280;30667;43.614;1.442;2023-02-19T02:19:04;101185.88;;;8.30;100.00
44934;BME280;30667;43.614;1.442;2023-02-19T02:27:21;101182.94;;;8.20;100.00
44934;BME280;30667;43.614;1.442;2023-02-19T02:29:55;101181.06;;;8.21;100.00
44934;BME280;30667;43.614;1.442;2023-02-19T02:32:34;101179.88;;;8.16;100.00
44934;BME280;30667;43.614;1.442;2023-02-19T02:35:07;101178.47;;;8.14;100.00
44934;BME280;30667;43.614;1.442;2023-02-19T02:37:36;101182.44;;;8.11;100.00
44934;BME280;30667;43.614;1.442;2023-02-19T02:40:04;101176.00;;;8.12;100.00
44934;BME280;30667;43.614;1.442;2023-02-19T02:42:32;101176.00;;;8.12;100.00
44934;BME280;30667;43.614;1.442;2023-02-19T02:45:20;101171.53;;;8.06;100.00
44934;BME280;30667;43.614;1.442;2023-02-19T02:48:01;101170.97;;;8.04;100.00
44934;BME280;30667;43.614;1.442;2023-02-19T02:50:34;101172.69;;;7.98;100.00
44934;BME280;30667;43.614;1.442;2023-02-19T02:53:07;101172.25;;;8.02;100.00
44934;BME280;30667;43.614;1.442;2023-02-19T02:55:53;101168.97;;;7.99;100.00
44934;BME280;30667;43.614;1.442;2023-02-19T02:58:22;101165.06;;;7.95;100.00
44934;BME280;30667;43.614;1.442;2023-02-19T03:00:54;101155.94;;;7.96;100.00
44934;BME280;30667;43.614;1.442;2023-02-19T03:03:41;101162.03;;;7.92;100.00
44934;BME280;30667;43.614;1.442;2023-02-19T03:06:10;101165.19;;;7.89;100.00
44934;BME280;30667;43.614;1.442;2023-02-19T03:08:56;101159.56;;;7.90;100.00
44934;BME280;30667;43.614;1.442;2023-02-19T03:11:23;101160.25;;;7.86;100.00
44934;BME280;30667;43.614;1.442;2023-02-19T03:14:33;101156.16;;;7.83;100.00
44934;BME280;30667;43.614;1.442;2023-02-19T03:17:29;101161.75;;;7.81;100.00
44934;BME280;30667;43.614;1.442;2023-02-19T03:20:15;101155.31;;;7.82;100.00
44934;BME280;30667;43.614;1.442;2023-02-19T03:22:45;101155.91;;;7.85;100.00
44934;BME280;30667;43.614;1.442;2023-02-19T03:27:57;101154.75;;;7.80;100.00
44934;BME280;30667;43.614;1.442;2023-02-19T03:30:28;101147.72;;;7.79;100.00
44934;BME280;30667;43.614;1.442;2023-02-19T03:33:07;101153.19;;;7.73;100.00
44934;BME280;30667;43.614;1.442;2023-02-19T03:35:46;101156.47;;;7.75;100.00
44934;BME280;30667;43.614;1.442;2023-02-19T03:38:31;101162.56;;;7.70;100.00
44934;BME280;30667;43.614;1.442;2023-02-19T03:41:08;101160.53;;;7.66;100.00
44934;BME280;30667;43.614;1.442;2023-02-19T03:43:43;101164.78;;;7.61;100.00
44934;BME280;30667;43.614;1.442;2023-02-19T03:46:16;101171.56;;;7.64;100.00
44934;BME280;30667;43.614;1.442;2023-02-19T03:48:52;101162.31;;;7.60;100.00
44934;BME280;30667;43.614;1.442;2023-02-19T03:51:36;101167.69;;;7.60;100.00
44934;BME280;30667;43.614;1.442;2023-02-19T03:56:37;101162.19;;;7.55;100.00
44934;BME280;30667;43.614;1.442;2023-02-19T03:59:12;101164.25;;;7.53;100.00
44934;BME280;30667;43.614;1.442;2023-02-19T04:06:55;101171.53;;;7.52;100.00
44934;BME280;30667;43.614;1.442;2023-02-19T04:09:25;101171.75;;;7.51;100.00
44934;BME280;30667;43.614;1.442;2023-02-19T04:11:54;101161.88;;;7.44;100.00
44934;BME280;30667;43.614;1.442;2023-02-19T04:14:31;101163.78;;;7.44;100.00
44934;BME280;30667;43.614;1.442;2023-02-19T04:17:01;101162.56;;;7.40;100.00
44934;BME280;30667;43.614;1.442;2023-02-19T04:19:32;101162.22;;;7.36;100.00
44934;BME280;30667;43.614;1.442;2023-02-19T04:21:59;101167.38;;;7.38;100.00
44934;BME280;30667;43.614;1.442;2023-02-19T04:24:36;101166.78;;;7.36;100.00
44934;BME280;30667;43.614;1.442;2023-02-19T04:27:04;101165.34;;;7.33;100.00
44934;BME280;30667;43.614;1.442;2023-02-19T04:29:29;101170.84;;;7.26;100.00
44934;BME280;30667;43.614;1.442;2023-02-19T04:31:55;101162.19;;;7.24;100.00
44934;BME280;30667;43.614;1.442;2023-02-19T04:34:20;101168.72;;;7.28;100.00
44934;BME280;30667;43.614;1.442;2023-02-19T04:36:45;101166.25;;;7.27;100.00
44934;BME280;30667;43.614;1.442;2023-02-19T04:39:11;101171.88;;;7.25;100.00
44934;BME280;30667;43.614;1.442;2023-02-19T04:41:36;101175.63;;;7.24;100.00
44934;BME280;30667;43.614;1.442;2023-02-19T04:44:02;101176.66;;;7.23;100.00
44934;BME280;30667;43.614;1.442;2023-02-19T04:46:27;101173.63;;;7.20;100.00
44934;BME280;30667;43.614;1.442;2023-02-19T04:48:53;101177.13;;;7.20;100.00
44934;BME280;30667;43.614;1.442;2023-02-19T04:51:18;101176.38;;;7.13;100.00
44934;BME280;30667;43.614;1.442;2023-02-19T04:53:43;101170.16;;;7.13;100.00
44934;BME280;30667;43.614;1.442;2023-02-19T04:56:11;101175.91;;;7.16;100.00
44934;BME280;30667;43.614;1.442;2023-02-19T04:58:37;101180.72;;;7.14;100.00
44934;BME280;30667;43.614;1.442;2023-02-19T05:01:03;101183.19;;;7.16;100.00
44934;BME280;30667;43.614;1.442;2023-02-19T05:03:28;101188.78;;;7.14;100.00
44934;BME280;30667;43.614;1.442;2023-02-19T05:05:54;101187.63;;;7.10;100.00
44934;BME280;30667;43.614;1.442;2023-02-19T05:08:19;101188.19;;;7.12;100.00
44934;BME280;30667;43.614;1.442;2023-02-19T05:10:45;101192.78;;;7.12;100.00
44934;BME280;30667;43.614;1.442;2023-02-19T05:13:10;101196.06;;;7.14;100.00
44934;BME280;30667;43.614;1.442;2023-02-19T05:15:35;101204.94;;;7.14;100.00
44934;BME280;30667;43.614;1.442;2023-02-19T05:18:01;101205.16;;;7.13;100.00
44934;BME280;30667;43.614;1.442;2023-02-19T05:20:27;101203.75;;;7.10;100.00
44934;BME280;30667;43.614;1.442;2023-02-19T05:22:52;101195.28;;;7.06;100.00
44934;BME280;30667;43.614;1.442;2023-02-19T05:25:17;101212.28;;;7.07;100.00
44934;BME280;30667;43.614;1.442;2023-02-19T05:27:43;101201.97;;;7.04;100.00
44934;BME280;30667;43.614;1.442;2023-02-19T05:30:09;101203.00;;;7.03;100.00
44934;BME280;30667;43.614;1.442;2023-02-19T05:32:35;101205.69;;;7.03;100.00
44934;BME280;30667;43.614;1.442;2023-02-19T05:35:00;101207.03;;;6.94;100.00
44934;BME280;30667;43.614;1.442;2023-02-19T05:37:26;101208.69;;;6.95;100.00
44934;BME280;30667;43.614;1.442;2023-02-19T05:39:51;101205.84;;;6.89;100.00
44934;BME280;30667;43.614;1.442;2023-02-19T05:42:17;101209.13;;;6.91;100.00
44934;BME280;30667;43.614;1.442;2023-02-19T05:44:43;101198.81;;;6.88;100.00
44934;BME280;30667;43.614;1.442;2023-02-19T05:47:08;101202.31;;;6.89;100.00
44934;BME280;30667;43.614;1.442;2023-02-19T05:49:34;101200.91;;;6.86;100.00
44934;BME280;30667;43.614;1.442;2023-02-19T05:51:59;101205.31;;;6.81;100.00
44934;BME280;30667;43.614;1.442;2023-02-19T05:54:27;101205.91;;;6.83;100.00
44934;BME280;30667;43.614;1.442;2023-02-19T05:56:53;101209.44;;;6.83;100.00
44934;BME280;30667;43.614;1.442;2023-02-19T05:59:21;101218.53;;;6.82;100.00
44934;BME280;30667;43.614;1.442;2023-02-19T06:01:48;101211.53;;;6.81;100.00
44934;BME280;30667;43.614;1.442;2023-02-19T06:04:14;101212.56;;;6.80;100.00
44934;BME280;30667;43.614;1.442;2023-02-19T06:06:40;101212.94;;;6.84;100.00
44934;BME280;30667;43.614;1.442;2023-02-19T06:09:06;101213.22;;;6.76;100.00
44934;BME280;30667;43.614;1.442;2023-02-19T06:11:32;101208.06;;;6.74;100.00
44934;BME280;30667;43.614;1.442;2023-02-19T06:13:58;101212.41;;;6.75;100.00
44934;BME280;30667;43.614;1.442;2023-02-19T06:16:23;101214.94;;;6.70;100.00
44934;BME280;30667;43.614;1.442;2023-02-19T06:18:49;101216.59;;;6.71;100.00
44934;BME280;30667;43.614;1.442;2023-02-19T06:21:16;101217.63;;;6.70;100.00
44934;BME280;30667;43.614;1.442;2023-02-19T06:23:42;101217.25;;;6.66;100.00
44934;BME280;30667;43.614;1.442;2023-02-19T06:26:10;101217.03;;;6.68;100.00
44934;BME280;30667;43.614;1.442;2023-02-19T06:28:36;101219.72;;;6.68;100.00
44934;BME280;30667;43.614;1.442;2023-02-19T06:31:03;101221.00;;;6.65;100.00
44934;BME280;30667;43.614;1.442;2023-02-19T06:33:29;101223.69;;;6.65;100.00
44934;BME280;30667;43.614;1.442;2023-02-19T06:35:57;101228.44;;;6.63;100.00
44934;BME280;30667;43.614;1.442;2023-02-19T06:38:23;101230.16;;;6.58;100.00
44934;BME280;30667;43.614;1.442;2023-02-19T06:40:49;101235.91;;;6.61;100.00
44934;BME280;30667;43.614;1.442;2023-02-19T06:43:14;101238.59;;;6.61;100.00
44934;BME280;30667;43.614;1.442;2023-02-19T06:45:39;101237.63;;;6.55;100.00
44934;BME280;30667;43.614;1.442;2023-02-19T06:48:05;101241.38;;;6.54;100.00
44934;BME280;30667;43.614;1.442;2023-02-19T06:50:30;101244.13;;;6.48;100.00
44934;BME280;30667;43.614;1.442;2023-02-19T06:52:56;101241.59;;;6.53;100.00
44934;BME280;30667;43.614;1.442;2023-02-19T06:55:21;101245.69;;;6.55;100.00
44934;BME280;30667;43.614;1.442;2023-02-19T06:57:46;101248.00;;;6.52;100.00
44934;BME280;30667;43.614;1.442;2023-02-19T07:00:12;101241.81;;;6.51;100.00
44934;BME280;30667;43.614;1.442;2023-02-19T07:02:38;101246.59;;;6.49;100.00
44934;BME280;30667;43.614;1.442;2023-02-19T07:05:03;101238.09;;;6.71;100.00
44934;BME280;30667;43.614;1.442;2023-02-19T07:07:29;101247.25;;;6.63;100.00
44934;BME280;30667;43.614;1.442;2023-02-19T07:09:54;101252.50;;;6.58;100.00
44934;BME280;30667;43.614;1.442;2023-02-19T07:12:19;101252.50;;;6.58;100.00
44934;BME280;30667;43.614;1.442;2023-02-19T07:14:45;101251.06;;;6.55;100.00
44934;BME280;30667;43.614;1.442;2023-02-19T07:17:10;101268.47;;;6.53;100.00
44934;BME280;30667;43.614;1.442;2023-02-19T07:19:35;101271.97;;;6.53;100.00
44934;BME280;30667;43.614;1.442;2023-02-19T07:22:01;101281.34;;;6.44;100.00
44934;BME280;30667;43.614;1.442;2023-02-19T07:24:26;101284.22;;;6.49;100.00
44934;BME280;30667;43.614;1.442;2023-02-19T07:26:52;101298.22;;;6.58;100.00
44934;BME280;30667;43.614;1.442;2023-02-19T07:29:17;101299.66;;;6.61;100.00
44934;BME280;30667;43.614;1.442;2023-02-19T07:31:43;101296.31;;;6.65;100.00
44934;BME280;30667;43.614;1.442;2023-02-19T07:34:08;101300.84;;;6.65;100.00
44934;BME280;30667;43.614;1.442;2023-02-19T07:36:33;101300.78;;;6.71;100.00
44934;BME280;30667;43.614;1.442;2023-02-19T07:38:59;101296.06;;;6.67;100.00
44934;BME280;30667;43.614;1.442;2023-02-19T07:41:26;101295.34;;;6.78;100.00
44934;BME280;30667;43.614;1.442;2023-02-19T07:43:52;101298.53;;;6.68;100.00
44934;BME280;30667;43.614;1.442;2023-02-19T07:46:18;101296.47;;;6.70;100.00
44934;BME280;30667;43.614;1.442;2023-02-19T07:48:44;101303.00;;;6.81;100.00
44934;BME280;30667;43.614;1.442;2023-02-19T07:51:15;101308.59;;;6.80;100.00
44934;BME280;30667;43.614;1.442;2023-02-19T07:53:46;101311.50;;;6.78;100.00
44934;BME280;30667;43.614;1.442;2023-02-19T07:56:12;101315.22;;;6.77;100.00
44934;BME280;30667;43.614;1.442;2023-02-19T07:58:38;101306.50;;;6.82;100.00
44934;BME280;30667;43.614;1.442;2023-02-19T08:01:13;101317.34;;;6.94;100.00
44934;BME280;30667;43.614;1.442;2023-02-19T08:03:39;101321.69;;;6.95;100.00
44934;BME280;30667;43.614;1.442;2023-02-19T08:06:05;101324.16;;;6.96;100.00
44934;BME280;30667;43.614;1.442;2023-02-19T08:08:31;101313.84;;;6.93;100.00
44934;BME280;30667;43.614;1.442;2023-02-19T08:11:01;101322.06;;;6.98;100.00
44934;BME280;30667;43.614;1.442;2023-02-19T08:13:50;101321.41;;;7.03;100.00
44934;BME280;30667;43.614;1.442;2023-02-19T08:16:17;101320.97;;;7.06;100.00
44934;BME280;30667;43.614;1.442;2023-02-19T08:18:45;101331.06;;;7.11;100.00
44934;BME280;30667;43.614;1.442;2023-02-19T08:21:11;101329.34;;;7.16;100.00
44934;BME280;30667;43.614;1.442;2023-02-19T08:23:37;101334.22;;;7.26;100.00
44934;BME280;30667;43.614;1.442;2023-02-19T08:26:03;101331.91;;;7.30;100.00
44934;BME280;30667;43.614;1.442;2023-02-19T08:28:29;101331.59;;;7.38;100.00
44934;BME280;30667;43.614;1.442;2023-02-19T08:31:01;101330.72;;;7.44;100.00
44934;BME280;30667;43.614;1.442;2023-02-19T08:33:27;101329.81;;;7.50;100.00
44934;BME280;30667;43.614;1.442;2023-02-19T08:35:53;101330.34;;;7.59;100.00
44934;BME280;30667;43.614;1.442;2023-02-19T08:38:18;101337.75;;;7.63;100.00
44934;BME280;30667;43.614;1.442;2023-02-19T08:40:44;101325.69;;;7.66;100.00
44934;BME280;30667;43.614;1.442;2023-02-19T08:43:12;101328.31;;;7.73;100.00
44934;BME280;30667;43.614;1.442;2023-02-19T08:45:40;101334.06;;;7.76;100.00
44934;BME280;30667;43.614;1.442;2023-02-19T08:48:06;101329.66;;;7.82;100.00
44934;BME280;30667;43.614;1.442;2023-02-19T08:50:32;101329.19;;;7.85;100.00
44934;BME280;30667;43.614;1.442;2023-02-19T08:53:01;101329.56;;;7.89;100.00
44934;BME280;30667;43.614;1.442;2023-02-19T08:55:27;101330.50;;;7.94;100.00
44934;BME280;30667;43.614;1.442;2023-02-19T08:57:53;101333.72;;;8.03;100.00
44934;BME280;30667;43.614;1.442;2023-02-19T09:00:19;101329.06;;;8.10;100.00
44934;BME280;30667;43.614;1.442;2023-02-19T09:02:46;101335.88;;;8.13;100.00
44934;BME280;30667;43.614;1.442;2023-02-19T09:05:12;101331.44;;;8.18;100.00
44934;BME280;30667;43.614;1.442;2023-02-19T09:07:38;101340.13;;;8.21;100.00
44934;BME280;30667;43.614;1.442;2023-02-19T09:10:04;101340.03;;;8.27;100.00
44934;BME280;30667;43.614;1.442;2023-02-19T09:12:29;101346.97;;;8.35;100.00
44934;BME280;30667;43.614;1.442;2023-02-19T09:14:55;101349.56;;;8.42;100.00
44934;BME280;30667;43.614;1.442;2023-02-19T09:17:20;101354.66;;;8.50;100.00
44934;BME280;30667;43.614;1.442;2023-02-19T09:19:46;101356.75;;;8.48;100.00
44934;BME280;30667;43.614;1.442;2023-02-19T09:22:11;101359.59;;;8.53;100.00
44934;BME280;30667;43.614;1.442;2023-02-19T09:24:37;101364.41;;;8.63;100.00
44934;BME280;30667;43.614;1.442;2023-02-19T09:27:02;101357.63;;;8.72;100.00
44934;BME280;30667;43.614;1.442;2023-02-19T09:29:28;101365.75;;;8.84;100.00
44934;BME280;30667;43.614;1.442;2023-02-19T09:31:57;101372.81;;;8.97;100.00
44934;BME280;30667;43.614;1.442;2023-02-19T09:34:24;101372.81;;;9.08;100.00
44934;BME280;30667;43.614;1.442;2023-02-19T09:36:50;101368.84;;;9.11;100.00
44934;BME280;30667;43.614;1.442;2023-02-19T09:39:16;101365.78;;;9.19;100.00
44934;BME280;30667;43.614;1.442;2023-02-19T09:41:47;101379.63;;;9.35;100.00
44934;BME280;30667;43.614;1.442;2023-02-19T09:44:26;101378.44;;;9.42;100.00
44934;BME280;30667;43.614;1.442;2023-02-19T09:46:54;101376.22;;;9.39;100.00
44934;BME280;30667;43.614;1.442;2023-02-19T09:49:38;101384.31;;;9.39;100.00
44934;BME280;30667;43.614;1.442;2023-02-19T09:52:16;101379.16;;;9.50;100.00
44934;BME280;30667;43.614;1.442;2023-02-19T09:54:44;101384.19;;;9.46;100.00
44934;BME280;30667;43.614;1.442;2023-02-19T09:57:16;101384.09;;;9.53;100.00
44934;BME280;30667;43.614;1.442;2023-02-19T10:02:43;101386.53;;;9.66;100.00
44934;BME280;30667;43.614;1.442;2023-02-19T10:05:12;101394.84;;;9.76;100.00
44934;BME280;30667;43.614;1.442;2023-02-19T10:07:47;101382.03;;;9.84;100.00
44934;BME280;30667;43.614;1.442;2023-02-19T10:12:45;101391.50;;;9.98;100.00
44934;BME280;30667;43.614;1.442;2023-02-19T10:15:33;101387.13;;;10.09;100.00
44934;BME280;30667;43.614;1.442;2023-02-19T10:17:58;101390.72;;;10.14;100.00
44934;BME280;30667;43.614;1.442;2023-02-19T10:20:25;101391.59;;;10.32;100.00
44934;BME280;30667;43.614;1.442;2023-02-19T10:23:01;101388.53;;;10.40;100.00
44934;BME280;30667;43.614;1.442;2023-02-19T10:25:28;101388.78;;;10.39;100.00
44934;BME280;30667;43.614;1.442;2023-02-19T10:27:57;101391.19;;;10.52;100.00
44934;BME280;30667;43.614;1.442;2023-02-19T10:30:24;101393.03;;;10.63;100.00
44934;BME280;30667;43.614;1.442;2023-02-19T10:32:59;101390.63;;;10.67;100.00
44934;BME280;30667;43.614;1.442;2023-02-19T10:35:26;101384.66;;;10.65;100.00
44934;BME280;30667;43.614;1.442;2023-02-19T10:37:51;101388.19;;;10.82;100.00
44934;BME280;30667;43.614;1.442;2023-02-19T10:40:23;101388.94;;;10.95;100.00
44934;BME280;30667;43.614;1.442;2023-02-19T10:42:53;101381.22;;;10.86;100.00
44934;BME280;30667;43.614;1.442;2023-02-19T10:45:27;101375.81;;;11.03;100.00
44934;BME280;30667;43.614;1.442;2023-02-19T10:47:55;101382.22;;;11.14;100.00
44934;BME280;30667;43.614;1.442;2023-02-19T10:52:54;101377.28;;;11.11;100.00
44934;BME280;30667;43.614;1.442;2023-02-19T10:55:34;101382.94;;;11.09;100.00
44934;BME280;30667;43.614;1.442;2023-02-19T10:58:27;101374.56;;;11.28;100.00
44934;BME280;30667;43.614;1.442;2023-02-19T11:03:38;101374.41;;;11.57;100.00
44934;BME280;30667;43.614;1.442;2023-02-19T11:06:06;101382.63;;;11.62;100.00
44934;BME280;30667;43.614;1.442;2023-02-19T11:08:54;101385.19;;;11.74;100.00
44934;BME280;30667;43.614;1.442;2023-02-19T11:13:48;101381.72;;;11.78;100.00
44934;BME280;30667;43.614;1.442;2023-02-19T11:16:14;101384.84;;;11.87;100.00
44934;BME280;30667;43.614;1.442;2023-02-19T11:18:40;101381.19;;;11.98;100.00
44934;BME280;30667;43.614;1.442;2023-02-19T11:21:23;101377.72;;;12.03;100.00
44934;BME280;30667;43.614;1.442;2023-02-19T11:23:49;101374.06;;;12.14;100.00
44934;BME280;30667;43.614;1.442;2023-02-19T11:26:18;101375.31;;;12.07;100.00
44934;BME280;30667;43.614;1.442;2023-02-19T11:28:44;101359.91;;;12.12;100.00
44934;BME280;30667;43.614;1.442;2023-02-19T11:31:23;101358.41;;;11.99;100.00
44934;BME280;30667;43.614;1.442;2023-02-19T11:36:28;101357.88;;;12.25;100.00
44934;BME280;30667;43.614;1.442;2023-02-19T11:38:54;101349.59;;;12.37;100.00
44934;BME280;30667;43.614;1.442;2023-02-19T11:49:16;101334.63;;;12.34;100.00
44934;BME280;30667;43.614;1.442;2023-02-19T11:57:37;101327.78;;;12.59;100.00
44934;BME280;30667;43.614;1.442;2023-02-19T12:05:49;101305.28;;;12.63;100.00
44934;BME280;30667;43.614;1.442;2023-02-19T12:09:04;101299.94;;;12.74;100.00
44934;BME280;30667;43.614;1.442;2023-02-19T12:11:57;101291.59;;;12.85;100.00
44934;BME280;30667;43.614;1.442;2023-02-19T12:14:44;101279.31;;;12.78;100.00
44934;BME280;30667;43.614;1.442;2023-02-19T12:22:37;101272.56;;;12.85;100.00
44934;BME280;30667;43.614;1.442;2023-02-19T12:25:16;101272.28;;;12.82;100.00
44934;BME280;30667;43.614;1.442;2023-02-19T12:39:13;101244.75;;;13.11;100.00
44934;BME280;30667;43.614;1.442;2023-02-19T12:44:53;101238.28;;;13.22;100.00
44934;BME280;30667;43.614;1.442;2023-02-19T12:47:35;101232.38;;;13.35;100.00
44934;BME280;30667;43.614;1.442;2023-02-19T12:50:15;101230.47;;;13.36;100.00
44934;BME280;30667;43.614;1.442;2023-02-19T12:52:46;101229.38;;;13.37;100.00
44934;BME280;30667;43.614;1.442;2023-02-19T12:55:27;101229.44;;;13.52;100.00
44934;BME280;30667;43.614;1.442;2023-02-19T12:57:55;101224.81;;;13.48;100.00
44934;BME280;30667;43.614;1.442;2023-02-19T13:00:44;101221.53;;;13.46;100.00
44934;BME280;30667;43.614;1.442;2023-02-19T13:03:13;101207.34;;;13.33;100.00
44934;BME280;30667;43.614;1.442;2023-02-19T13:06:03;101205.22;;;13.40;100.00
44934;BME280;30667;43.614;1.442;2023-02-19T13:08:35;101204.72;;;13.64;100.00
44934;BME280;30667;43.614;1.442;2023-02-19T13:16:30;101175.84;;;13.48;100.00
44934;BME280;30667;43.614;1.442;2023-02-19T13:19:00;101182.16;;;13.69;100.00
44934;BME280;30667;43.614;1.442;2023-02-19T13:21:29;101182.97;;;13.69;100.00
44934;BME280;30667;43.614;1.442;2023-02-19T13:24:21;101177.25;;;13.66;100.00
44934;BME280;30667;43.614;1.442;2023-02-19T13:27:09;101167.16;;;13.51;100.00
44934;BME280;30667;43.614;1.442;2023-02-19T13:36:07;101153.06;;;13.85;100.00
44934;BME280;30667;43.614;1.442;2023-02-19T13:38:09;101155.50;;;13.81;100.00
44934;BME280;30667;43.614;1.442;2023-02-19T13:40:38;101147.63;;;13.95;100.00
44934;BME280;30667;43.614;1.442;2023-02-19T13:43:17;101145.16;;;14.04;100.00
44934;BME280;30667;43.614;1.442;2023-02-19T13:45:54;101140.56;;;14.04;100.00
44934;BME280;30667;43.614;1.442;2023-02-19T13:48:24;101138.63;;;14.10;100.00
44934;BME280;30667;43.614;1.442;2023-02-19T14:04:21;101122.88;;;14.02;100.00
44934;BME280;30667;43.614;1.442;2023-02-19T14:14:36;101119.59;;;14.20;100.00
44934;BME280;30667;43.614;1.442;2023-02-19T14:30:22;101100.25;;;14.16;100.00
44934;BME280;30667;43.614;1.442;2023-02-19T14:32:49;101091.28;;;14.16;100.00
44934;BME280;30667;43.614;1.442;2023-02-19T14:35:20;101096.19;;;14.04;100.00
44934;BME280;30667;43.614;1.442;2023-02-19T14:37:49;101095.91;;;14.21;100.00
44934;BME280;30667;43.614;1.442;2023-02-19T14:40:47;101094.25;;;14.20;100.00
44934;BME280;30667;43.614;1.442;2023-02-19T14:43:16;101096.13;;;14.40;100.00
44934;BME280;30667;43.614;1.442;2023-02-19T14:45:47;101087.41;;;14.32;100.00
44934;BME280;30667;43.614;1.442;2023-02-19T14:48:25;101086.34;;;14.28;100.00
44934;BME280;30667;43.614;1.442;2023-02-19T14:50:59;101092.00;;;14.42;100.00
44934;BME280;30667;43.614;1.442;2023-02-19T14:53:27;101090.44;;;14.36;100.00
44934;BME280;30667;43.614;1.442;2023-02-19T14:55:55;101085.53;;;14.33;100.00
44934;BME280;30667;43.614;1.442;2023-02-19T14:58:30;101081.19;;;14.27;100.00
44934;BME280;30667;43.614;1.442;2023-02-19T15:00:56;101072.44;;;14.35;100.00
44934;BME280;30667;43.614;1.442;2023-02-19T15:03:29;101077.94;;;14.20;100.00